sensor_id;sensor_type;location;lat;lon;timestamp;P1;durP1;ratioP1;P2;durP2;ratioP2
19587;SDS011;9940;47.252;8.696;2023-02-12T00:01:09;17.65;;;7.20;;
19587;SDS011;9940;47.252;8.696;2023-02-12T00:03:38;14.23;;;6.03;;
19587;SDS011;9940;47.252;8.696;2023-02-12T00:06:05;17.63;;;7.43;;
19587;SDS011;9940;47.252;8.696;2023-02-12T00:08:31;17.10;;;7.15;;
19587;SDS011;9940;47.252;8.696;2023-02-12T00:11:06;17.80;;;7.45;;
19587;SDS011;9940;47.252;8.696;2023-02-12T00:13:34;15.27;;;6.68;;
19587;SDS011;9940;47.252;8.696;2023-02-12T00:16:03;14.30;;;6.72;;
19587;SDS011;9940;47.252;8.696;2023-02-12T00:18:32;17.73;;;7.45;;
19587;SDS011;9940;47.252;8.696;2023-02-12T00:20:58;14.93;;;6.65;;
19587;SDS011;9940;47.252;8.696;2023-02-12T00:23:25;17.02;;;6.63;;
19587;SDS011;9940;47.252;8.696;2023-02-12T00:25:51;16.15;;;7.05;;
19587;SDS011;9940;47.252;8.696;2023-02-12T00:28:19;19.42;;;7.25;;
19587;SDS011;9940;47.252;8.696;2023-02-12T00:30:47;15.82;;;6.35;;
19587;SDS011;9940;47.252;8.696;2023-02-12T00:33:15;16.42;;;6.93;;
19587;SDS011;9940;47.252;8.696;2023-02-12T00:35:43;16.88;;;6.65;;
19587;SDS011;9940;47.252;8.696;2023-02-12T00:38:09;15.52;;;6.13;;
19587;SDS011;9940;47.252;8.696;2023-02-12T00:40:35;16.23;;;7.10;;
19587;SDS011;9940;47.252;8.696;2023-02-12T00:43:03;15.43;;;6.68;;
19587;SDS011;9940;47.252;8.696;2023-02-12T00:45:29;15.90;;;5.97;;
19587;SDS011;9940;47.252;8.696;2023-02-12T00:47:58;19.15;;;6.15;;
19587;SDS011;9940;47.252;8.696;2023-02-12T00:50:23;17.10;;;6.72;;
19587;SDS011;9940;47.252;8.696;2023-02-12T00:52:49;14.45;;;5.97;;
19587;SDS011;9940;47.252;8.696;2023-02-12T00:55:19;14.90;;;6.60;;
19587;SDS011;9940;47.252;8.696;2023-02-12T00:57:52;15.85;;;6.35;;
19587;SDS011;9940;47.252;8.696;2023-02-12T01:00:17;13.93;;;6.10;;
19587;SDS011;9940;47.252;8.696;2023-02-12T01:02:43;18.08;;;7.05;;
19587;SDS011;9940;47.252;8.696;2023-02-12T01:05:09;16.10;;;6.68;;
19587;SDS011;9940;47.252;8.696;2023-02-12T01:07:35;14.15;;;6.25;;
19587;SDS011;9940;47.252;8.696;2023-02-12T01:10:02;14.88;;;6.80;;
19587;SDS011;9940;47.252;8.696;2023-02-12T01:12:29;17.73;;;6.88;;
19587;SDS011;9940;47.252;8.696;2023-02-12T01:14:55;13.10;;;6.32;;
19587;SDS011;9940;47.252;8.696;2023-02-12T01:17:23;15.63;;;6.50;;
19587;SDS011;9940;47.252;8.696;2023-02-12T01:19:48;18.98;;;6.65;;
19587;SDS011;9940;47.252;8.696;2023-02-12T01:22:15;15.65;;;7.15;;
19587;SDS011;9940;47.252;8.696;2023-02-12T01:24:40;14.25;;;6.85;;
19587;SDS011;9940;47.252;8.696;2023-02-12T01:27:06;14.82;;;6.68;;
19587;SDS011;9940;47.252;8.696;2023-02-12T01:29:32;17.08;;;6.97;;
19587;SDS011;9940;47.252;8.696;2023-02-12T01:31:58;16.27;;;6.65;;
19587;SDS011;9940;47.252;8.696;2023-02-12T01:34:23;17.33;;;6.70;;
19587;SDS011;9940;47.252;8.696;2023-02-12T01:36:51;13.18;;;5.90;;
19587;SDS011;9940;47.252;8.696;2023-02-12T01:39:19;15.13;;;7.05;;
19587;SDS011;9940;47.252;8.696;2023-02-12T01:41:46;19.23;;;7.53;;
19587;SDS011;9940;47.252;8.696;2023-02-12T01:44:16;17.13;;;7.10;;
19587;SDS011;9940;47.252;8.696;2023-02-12T01:46:54;19.10;;;7.80;;
19587;SDS011;9940;47.252;8.696;2023-02-12T01:49:25;15.77;;;6.65;;
19587;SDS011;9940;47.252;8.696;2023-02-12T01:52:02;20.23;;;7.68;;
19587;SDS011;9940;47.252;8.696;2023-02-12T01:54:29;19.52;;;7.22;;
19587;SDS011;9940;47.252;8.696;2023-02-12T01:56:55;15.98;;;7.40;;
19587;SDS011;9940;47.252;8.696;2023-02-12T01:59:21;15.80;;;7.85;;
19587;SDS011;9940;47.252;8.696;2023-02-12T02:01:48;20.73;;;7.53;;
19587;SDS011;9940;47.252;8.696;2023-02-12T02:04:16;21.63;;;7.15;;
19587;SDS011;9940;47.252;8.696;2023-02-12T02:06:49;19.85;;;7.88;;
19587;SDS011;9940;47.252;8.696;2023-02-12T02:09:28;18.10;;;7.65;;
19587;SDS011;9940;47.252;8.696;2023-02-12T02:11:55;22.45;;;8.20;;
19587;SDS011;9940;47.252;8.696;2023-02-12T02:14:39;19.33;;;7.45;;
19587;SDS011;9940;47.252;8.696;2023-02-12T02:25:31;21.50;;;8.20;;
19587;SDS011;9940;47.252;8.696;2023-02-12T02:28:28;19.88;;;9.00;;
19587;SDS011;9940;47.252;8.696;2023-02-12T02:31:03;22.35;;;8.25;;
19587;SDS011;9940;47.252;8.696;2023-02-12T02:33:35;18.90;;;7.88;;
19587;SDS011;9940;47.252;8.696;2023-02-12T02:44:02;21.20;;;8.25;;
19587;SDS011;9940;47.252;8.696;2023-02-12T02:46:33;22.20;;;8.02;;
19587;SDS011;9940;47.252;8.696;2023-02-12T02:49:05;22.20;;;8.30;;
19587;SDS011;9940;47.252;8.696;2023-02-12T02:51:33;18.25;;;7.88;;
19587;SDS011;9940;47.252;8.696;2023-02-12T02:54:02;22.83;;;7.90;;
19587;SDS011;9940;47.252;8.696;2023-02-12T02:56:30;22.48;;;7.82;;
19587;SDS011;9940;47.252;8.696;2023-02-12T02:59:02;18.58;;;8.05;;
19587;SDS011;9940;47.252;8.696;2023-02-12T03:03:58;22.88;;;8.70;;
19587;SDS011;9940;47.252;8.696;2023-02-12T03:06:35;24.88;;;8.35;;
19587;SDS011;9940;47.252;8.696;2023-02-12T03:09:21;23.77;;;8.30;;
19587;SDS011;9940;47.252;8.696;2023-02-12T03:11:47;24.98;;;9.15;;
19587;SDS011;9940;47.252;8.696;2023-02-12T03:14:22;23.40;;;8.98;;
19587;SDS011;9940;47.252;8.696;2023-02-12T03:19:21;20.80;;;8.18;;
19587;SDS011;9940;47.252;8.696;2023-02-12T03:21:49;22.83;;;8.73;;
19587;SDS011;9940;47.252;8.696;2023-02-12T03:26:46;23.08;;;9.55;;
19587;SDS011;9940;47.252;8.696;2023-02-12T03:29:14;20.75;;;8.88;;
19587;SDS011;9940;47.252;8.696;2023-02-12T03:37:11;21.02;;;8.80;;
19587;SDS011;9940;47.252;8.696;2023-02-12T03:42:23;19.80;;;8.95;;
19587;SDS011;9940;47.252;8.696;2023-02-12T03:44:53;24.42;;;9.32;;
19587;SDS011;9940;47.252;8.696;2023-02-12T03:50:08;26.05;;;9.75;;
19587;SDS011;9940;47.252;8.696;2023-02-12T03:52:37;24.33;;;10.27;;
19587;SDS011;9940;47.252;8.696;2023-02-12T03:55:06;21.92;;;10.00;;
19587;SDS011;9940;47.252;8.696;2023-02-12T03:57:33;22.92;;;9.35;;
19587;SDS011;9940;47.252;8.696;2023-02-12T04:00:04;29.85;;;10.45;;
19587;SDS011;9940;47.252;8.696;2023-02-12T04:02:33;23.27;;;9.70;;
19587;SDS011;9940;47.252;8.696;2023-02-12T04:05:06;25.20;;;9.95;;
19587;SDS011;9940;47.252;8.696;2023-02-12T04:07:34;25.70;;;9.88;;
19587;SDS011;9940;47.252;8.696;2023-02-12T04:10:02;21.98;;;9.43;;
19587;SDS011;9940;47.252;8.696;2023-02-12T04:30:53;30.52;;;9.75;;
19587;SDS011;9940;47.252;8.696;2023-02-12T04:33:21;23.10;;;9.50;;
19587;SDS011;9940;47.252;8.696;2023-02-12T04:35:59;28.52;;;10.23;;
19587;SDS011;9940;47.252;8.696;2023-02-12T04:38:36;21.45;;;8.60;;
19587;SDS011;9940;47.252;8.696;2023-02-12T04:41:05;26.88;;;9.88;;
19587;SDS011;9940;47.252;8.696;2023-02-12T04:43:33;25.02;;;9.50;;
19587;SDS011;9940;47.252;8.696;2023-02-12T04:46:00;28.52;;;10.13;;
19587;SDS011;9940;47.252;8.696;2023-02-12T04:48:26;27.48;;;9.93;;
19587;SDS011;9940;47.252;8.696;2023-02-12T04:50:53;26.10;;;9.18;;
19587;SDS011;9940;47.252;8.696;2023-02-12T04:53:19;24.38;;;8.52;;
19587;SDS011;9940;47.252;8.696;2023-02-12T04:55:45;27.42;;;10.50;;
19587;SDS011;9940;47.252;8.696;2023-02-12T04:58:12;27.65;;;9.65;;
19587;SDS011;9940;47.252;8.696;2023-02-12T05:00:38;25.80;;;10.10;;
19587;SDS011;9940;47.252;8.696;2023-02-12T05:03:04;30.00;;;10.30;;
19587;SDS011;9940;47.252;8.696;2023-02-12T05:05:30;26.08;;;10.07;;
19587;SDS011;9940;47.252;8.696;2023-02-12T05:07:57;25.65;;;9.38;;
19587;SDS011;9940;47.252;8.696;2023-02-12T05:10:25;27.45;;;9.57;;
19587;SDS011;9940;47.252;8.696;2023-02-12T05:12:51;22.92;;;9.02;;
19587;SDS011;9940;47.252;8.696;2023-02-12T05:15:18;23.88;;;9.32;;
19587;SDS011;9940;47.252;8.696;2023-02-12T05:17:44;24.63;;;10.13;;
19587;SDS011;9940;47.252;8.696;2023-02-12T05:20:11;30.77;;;10.25;;
19587;SDS011;9940;47.252;8.696;2023-02-12T05:22:42;24.10;;;9.35;;
19587;SDS011;9940;47.252;8.696;2023-02-12T05:25:08;29.73;;;9.85;;
19587;SDS011;9940;47.252;8.696;2023-02-12T05:27:36;25.23;;;9.90;;
19587;SDS011;9940;47.252;8.696;2023-02-12T05:30:03;30.63;;;10.05;;
19587;SDS011;9940;47.252;8.696;2023-02-12T05:32:30;26.33;;;9.98;;
19587;SDS011;9940;47.252;8.696;2023-02-12T05:34:56;30.48;;;10.63;;
19587;SDS011;9940;47.252;8.696;2023-02-12T05:37:22;22.80;;;8.90;;
19587;SDS011;9940;47.252;8.696;2023-02-12T05:39:48;23.95;;;10.00;;
19587;SDS011;9940;47.252;8.696;2023-02-12T05:42:17;29.38;;;9.98;;
19587;SDS011;9940;47.252;8.696;2023-02-12T05:44:45;26.65;;;9.52;;
19587;SDS011;9940;47.252;8.696;2023-02-12T05:47:14;26.90;;;10.07;;
19587;SDS011;9940;47.252;8.696;2023-02-12T05:49:40;24.52;;;9.65;;
19587;SDS011;9940;47.252;8.696;2023-02-12T05:52:08;25.92;;;9.10;;
19587;SDS011;9940;47.252;8.696;2023-02-12T05:54:34;24.15;;;9.35;;
19587;SDS011;9940;47.252;8.696;2023-02-12T05:57:03;27.00;;;10.15;;
19587;SDS011;9940;47.252;8.696;2023-02-12T05:59:31;25.98;;;9.57;;
19587;SDS011;9940;47.252;8.696;2023-02-12T06:01:57;29.40;;;10.32;;
19587;SDS011;9940;47.252;8.696;2023-02-12T06:04:26;27.33;;;10.13;;
19587;SDS011;9940;47.252;8.696;2023-02-12T06:06:53;29.05;;;9.93;;
19587;SDS011;9940;47.252;8.696;2023-02-12T06:09:19;27.77;;;10.18;;
19587;SDS011;9940;47.252;8.696;2023-02-12T06:11:46;32.22;;;10.13;;
19587;SDS011;9940;47.252;8.696;2023-02-12T06:14:15;28.02;;;10.35;;
19587;SDS011;9940;47.252;8.696;2023-02-12T06:16:49;28.70;;;10.57;;
19587;SDS011;9940;47.252;8.696;2023-02-12T06:19:15;34.80;;;12.27;;
19587;SDS011;9940;47.252;8.696;2023-02-12T06:21:41;36.60;;;12.18;;
19587;SDS011;9940;47.252;8.696;2023-02-12T06:24:08;45.78;;;12.88;;
19587;SDS011;9940;47.252;8.696;2023-02-12T06:26:34;49.72;;;14.85;;
19587;SDS011;9940;47.252;8.696;2023-02-12T06:29:03;48.20;;;14.93;;
19587;SDS011;9940;47.252;8.696;2023-02-12T06:31:30;48.28;;;15.20;;
19587;SDS011;9940;47.252;8.696;2023-02-12T06:33:58;46.38;;;14.77;;
19587;SDS011;9940;47.252;8.696;2023-02-12T06:36:27;42.25;;;14.55;;
19587;SDS011;9940;47.252;8.696;2023-02-12T06:38:53;38.40;;;14.23;;
19587;SDS011;9940;47.252;8.696;2023-02-12T06:41:19;39.53;;;14.93;;
19587;SDS011;9940;47.252;8.696;2023-02-12T06:43:46;38.78;;;13.07;;
19587;SDS011;9940;47.252;8.696;2023-02-12T06:46:12;40.15;;;13.48;;
19587;SDS011;9940;47.252;8.696;2023-02-12T06:48:41;36.42;;;12.63;;
19587;SDS011;9940;47.252;8.696;2023-02-12T06:51:11;32.70;;;13.18;;
19587;SDS011;9940;47.252;8.696;2023-02-12T06:53:40;33.40;;;11.38;;
19587;SDS011;9940;47.252;8.696;2023-02-12T06:56:07;30.10;;;11.02;;
19587;SDS011;9940;47.252;8.696;2023-02-12T06:58:40;31.27;;;11.50;;
19587;SDS011;9940;47.252;8.696;2023-02-12T07:03:37;31.13;;;10.35;;
19587;SDS011;9940;47.252;8.696;2023-02-12T07:06:03;34.15;;;12.00;;
19587;SDS011;9940;47.252;8.696;2023-02-12T07:08:30;40.40;;;12.93;;
19587;SDS011;9940;47.252;8.696;2023-02-12T07:10:56;39.20;;;12.13;;
19587;SDS011;9940;47.252;8.696;2023-02-12T07:13:24;30.85;;;11.27;;
19587;SDS011;9940;47.252;8.696;2023-02-12T07:15:50;33.55;;;11.27;;
19587;SDS011;9940;47.252;8.696;2023-02-12T07:18:16;33.42;;;11.57;;
19587;SDS011;9940;47.252;8.696;2023-02-12T07:20:42;29.67;;;11.63;;
19587;SDS011;9940;47.252;8.696;2023-02-12T07:23:12;29.98;;;11.50;;
19587;SDS011;9940;47.252;8.696;2023-02-12T07:25:38;34.17;;;11.75;;
19587;SDS011;9940;47.252;8.696;2023-02-12T07:28:06;30.48;;;10.88;;
19587;SDS011;9940;47.252;8.696;2023-02-12T07:30:35;38.75;;;12.02;;
19587;SDS011;9940;47.252;8.696;2023-02-12T07:33:02;29.35;;;11.45;;
19587;SDS011;9940;47.252;8.696;2023-02-12T07:35:28;33.88;;;11.43;;
19587;SDS011;9940;47.252;8.696;2023-02-12T07:37:54;29.75;;;11.50;;
19587;SDS011;9940;47.252;8.696;2023-02-12T07:40:20;29.30;;;11.30;;
19587;SDS011;9940;47.252;8.696;2023-02-12T07:42:49;29.33;;;10.57;;
19587;SDS011;9940;47.252;8.696;2023-02-12T07:45:19;33.92;;;11.85;;
19587;SDS011;9940;47.252;8.696;2023-02-12T07:47:48;33.28;;;11.60;;
19587;SDS011;9940;47.252;8.696;2023-02-12T07:50:17;32.55;;;12.07;;
19587;SDS011;9940;47.252;8.696;2023-02-12T07:52:43;32.70;;;12.30;;
19587;SDS011;9940;47.252;8.696;2023-02-12T07:55:09;31.33;;;12.13;;
19587;SDS011;9940;47.252;8.696;2023-02-12T07:57:37;28.35;;;11.45;;
19587;SDS011;9940;47.252;8.696;2023-02-12T08:00:04;29.15;;;11.75;;
19587;SDS011;9940;47.252;8.696;2023-02-12T08:02:32;33.55;;;12.45;;
19587;SDS011;9940;47.252;8.696;2023-02-12T08:04:58;33.08;;;13.05;;
19587;SDS011;9940;47.252;8.696;2023-02-12T08:07:28;34.60;;;12.93;;
19587;SDS011;9940;47.252;8.696;2023-02-12T08:09:54;32.17;;;13.18;;
19587;SDS011;9940;47.252;8.696;2023-02-12T08:12:20;31.10;;;12.77;;
19587;SDS011;9940;47.252;8.696;2023-02-12T08:14:47;30.75;;;12.18;;
19587;SDS011;9940;47.252;8.696;2023-02-12T08:17:13;32.90;;;12.73;;
19587;SDS011;9940;47.252;8.696;2023-02-12T08:19:39;35.08;;;12.52;;
19587;SDS011;9940;47.252;8.696;2023-02-12T08:22:05;37.58;;;12.85;;
19587;SDS011;9940;47.252;8.696;2023-02-12T08:24:34;33.50;;;11.98;;
19587;SDS011;9940;47.252;8.696;2023-02-12T08:27:00;31.00;;;13.65;;
19587;SDS011;9940;47.252;8.696;2023-02-12T08:29:28;34.50;;;13.55;;
19587;SDS011;9940;47.252;8.696;2023-02-12T08:31:58;33.60;;;13.07;;
19587;SDS011;9940;47.252;8.696;2023-02-12T08:34:26;35.67;;;13.80;;
19587;SDS011;9940;47.252;8.696;2023-02-12T08:36:53;36.40;;;13.05;;
19587;SDS011;9940;47.252;8.696;2023-02-12T08:39:19;38.83;;;14.30;;
19587;SDS011;9940;47.252;8.696;2023-02-12T08:41:45;35.58;;;12.75;;
19587;SDS011;9940;47.252;8.696;2023-02-12T08:44:12;35.85;;;13.30;;
19587;SDS011;9940;47.252;8.696;2023-02-12T08:46:40;34.75;;;13.98;;
19587;SDS011;9940;47.252;8.696;2023-02-12T08:49:11;39.50;;;14.90;;
19587;SDS011;9940;47.252;8.696;2023-02-12T08:51:38;40.83;;;13.95;;
19587;SDS011;9940;47.252;8.696;2023-02-12T08:54:05;35.75;;;13.00;;
19587;SDS011;9940;47.252;8.696;2023-02-12T08:56:32;37.42;;;13.57;;
19587;SDS011;9940;47.252;8.696;2023-02-12T08:59:02;38.28;;;14.45;;
19587;SDS011;9940;47.252;8.696;2023-02-12T09:01:30;33.88;;;13.18;;
19587;SDS011;9940;47.252;8.696;2023-02-12T09:03:59;42.10;;;13.82;;
19587;SDS011;9940;47.252;8.696;2023-02-12T09:06:25;40.80;;;13.63;;
19587;SDS011;9940;47.252;8.696;2023-02-12T09:08:54;44.05;;;15.73;;
19587;SDS011;9940;47.252;8.696;2023-02-12T09:11:24;39.10;;;14.20;;
19587;SDS011;9940;47.252;8.696;2023-02-12T09:13:55;35.13;;;14.80;;
19587;SDS011;9940;47.252;8.696;2023-02-12T09:16:22;39.08;;;14.18;;
19587;SDS011;9940;47.252;8.696;2023-02-12T09:18:48;37.88;;;14.10;;
19587;SDS011;9940;47.252;8.696;2023-02-12T09:21:14;38.88;;;15.57;;
19587;SDS011;9940;47.252;8.696;2023-02-12T09:23:41;41.58;;;15.95;;
19587;SDS011;9940;47.252;8.696;2023-02-12T09:26:08;42.47;;;15.98;;
19587;SDS011;9940;47.252;8.696;2023-02-12T09:28:35;42.15;;;15.00;;
19587;SDS011;9940;47.252;8.696;2023-02-12T09:31:07;41.55;;;15.93;;
19587;SDS011;9940;47.252;8.696;2023-02-12T09:33:33;42.05;;;15.90;;
19587;SDS011;9940;47.252;8.696;2023-02-12T09:36:00;46.60;;;16.20;;
19587;SDS011;9940;47.252;8.696;2023-02-12T09:38:28;41.47;;;15.35;;
19587;SDS011;9940;47.252;8.696;2023-02-12T09:41:05;43.95;;;15.95;;
19587;SDS011;9940;47.252;8.696;2023-02-12T09:43:41;43.92;;;16.58;;
19587;SDS011;9940;47.252;8.696;2023-02-12T09:51:02;46.22;;;16.02;;
19587;SDS011;9940;47.252;8.696;2023-02-12T09:53:31;48.00;;;16.92;;
19587;SDS011;9940;47.252;8.696;2023-02-12T09:55:57;46.15;;;16.23;;
19587;SDS011;9940;47.252;8.696;2023-02-12T09:58:32;43.75;;;16.42;;
19587;SDS011;9940;47.252;8.696;2023-02-12T10:01:03;41.75;;;15.82;;
19587;SDS011;9940;47.252;8.696;2023-02-12T10:03:34;50.92;;;16.92;;
19587;SDS011;9940;47.252;8.696;2023-02-12T10:06:02;43.20;;;16.58;;
19587;SDS011;9940;47.252;8.696;2023-02-12T10:13:44;44.25;;;15.68;;
19587;SDS011;9940;47.252;8.696;2023-02-12T10:26:39;30.38;;;12.30;;
19587;SDS011;9940;47.252;8.696;2023-02-12T10:29:10;34.55;;;11.68;;
19587;SDS011;9940;47.252;8.696;2023-02-12T10:31:37;25.63;;;11.00;;
19587;SDS011;9940;47.252;8.696;2023-02-12T10:34:13;33.67;;;12.85;;
19587;SDS011;9940;47.252;8.696;2023-02-12T10:36:44;33.95;;;14.77;;
19587;SDS011;9940;47.252;8.696;2023-02-12T10:41:47;32.72;;;13.90;;
19587;SDS011;9940;47.252;8.696;2023-02-12T10:44:23;32.63;;;14.20;;
19587;SDS011;9940;47.252;8.696;2023-02-12T10:46:49;30.50;;;13.38;;
19587;SDS011;9940;47.252;8.696;2023-02-12T10:49:16;29.38;;;14.40;;
19587;SDS011;9940;47.252;8.696;2023-02-12T10:52:01;27.80;;;14.45;;
19587;SDS011;9940;47.252;8.696;2023-02-12T10:57:09;23.60;;;15.30;;
19587;SDS011;9940;47.252;8.696;2023-02-12T10:59:38;24.35;;;16.67;;
19587;SDS011;9940;47.252;8.696;2023-02-12T11:02:16;21.33;;;16.30;;
19587;SDS011;9940;47.252;8.696;2023-02-12T11:04:45;22.50;;;15.52;;
19587;SDS011;9940;47.252;8.696;2023-02-12T11:07:11;23.50;;;18.13;;
19587;SDS011;9940;47.252;8.696;2023-02-12T11:09:38;24.15;;;20.45;;
19587;SDS011;9940;47.252;8.696;2023-02-12T11:12:16;26.42;;;22.63;;
19587;SDS011;9940;47.252;8.696;2023-02-12T11:15:03;25.33;;;22.83;;
19587;SDS011;9940;47.252;8.696;2023-02-12T11:17:37;35.70;;;32.85;;
19587;SDS011;9940;47.252;8.696;2023-02-12T11:26:19;41.40;;;38.30;;
19587;SDS011;9940;47.252;8.696;2023-02-12T11:28:57;45.75;;;42.58;;
19587;SDS011;9940;47.252;8.696;2023-02-12T11:31:25;49.20;;;45.72;;
19587;SDS011;9940;47.252;8.696;2023-02-12T11:36:34;46.28;;;43.00;;
19587;SDS011;9940;47.252;8.696;2023-02-12T11:39:01;88.57;;;83.57;;
19587;SDS011;9940;47.252;8.696;2023-02-12T11:41:32;90.97;;;85.90;;
19587;SDS011;9940;47.252;8.696;2023-02-12T11:44:02;83.32;;;78.53;;
19587;SDS011;9940;47.252;8.696;2023-02-12T11:46:33;101.25;;;95.55;;
19587;SDS011;9940;47.252;8.696;2023-02-12T11:49:04;72.35;;;67.80;;
19587;SDS011;9940;47.252;8.696;2023-02-12T11:51:33;66.43;;;62.00;;
19587;SDS011;9940;47.252;8.696;2023-02-12T11:54:02;48.72;;;45.00;;
19587;SDS011;9940;47.252;8.696;2023-02-12T11:56:44;62.97;;;58.88;;
19587;SDS011;9940;47.252;8.696;2023-02-12T11:59:15;44.97;;;41.72;;
19587;SDS011;9940;47.252;8.696;2023-02-12T12:01:42;48.25;;;44.22;;
19587;SDS011;9940;47.252;8.696;2023-02-12T12:04:12;60.08;;;55.90;;
19587;SDS011;9940;47.252;8.696;2023-02-12T12:06:40;51.90;;;47.90;;
19587;SDS011;9940;47.252;8.696;2023-02-12T12:11:39;34.80;;;31.58;;
19587;SDS011;9940;47.252;8.696;2023-02-12T12:19:23;26.52;;;23.13;;
19587;SDS011;9940;47.252;8.696;2023-02-12T12:33:04;27.02;;;20.33;;
19587;SDS011;9940;47.252;8.696;2023-02-12T12:35:42;26.95;;;20.30;;
19587;SDS011;9940;47.252;8.696;2023-02-12T12:38:17;30.70;;;20.77;;
19587;SDS011;9940;47.252;8.696;2023-02-12T12:40:59;26.85;;;18.63;;
19587;SDS011;9940;47.252;8.696;2023-02-12T12:44:04;27.35;;;19.02;;
19587;SDS011;9940;47.252;8.696;2023-02-12T12:49:12;26.33;;;19.13;;
19587;SDS011;9940;47.252;8.696;2023-02-12T12:57:00;27.30;;;18.88;;
19587;SDS011;9940;47.252;8.696;2023-02-12T13:12:59;28.73;;;19.05;;
19587;SDS011;9940;47.252;8.696;2023-02-12T13:31:46;24.13;;;15.88;;
19587;SDS011;9940;47.252;8.696;2023-02-12T13:34:19;24.50;;;16.02;;
19587;SDS011;9940;47.252;8.696;2023-02-12T13:36:47;19.83;;;13.30;;
19587;SDS011;9940;47.252;8.696;2023-02-12T13:44:46;22.45;;;15.15;;
19587;SDS011;9940;47.252;8.696;2023-02-12T13:52:36;22.17;;;13.73;;
19587;SDS011;9940;47.252;8.696;2023-02-12T13:55:13;22.98;;;14.40;;
19587;SDS011;9940;47.252;8.696;2023-02-12T13:57:42;25.63;;;14.82;;
19587;SDS011;9940;47.252;8.696;2023-02-12T14:02:53;25.02;;;14.35;;
19587;SDS011;9940;47.252;8.696;2023-02-12T14:05:22;25.58;;;15.27;;
19587;SDS011;9940;47.252;8.696;2023-02-12T14:07:50;28.23;;;15.30;;
19587;SDS011;9940;47.252;8.696;2023-02-12T14:12:45;26.50;;;15.57;;
19587;SDS011;9940;47.252;8.696;2023-02-12T14:17:54;28.10;;;14.63;;
19587;SDS011;9940;47.252;8.696;2023-02-12T14:32:59;27.30;;;14.57;;
19587;SDS011;9940;47.252;8.696;2023-02-12T14:45:56;27.02;;;14.18;;
19587;SDS011;9940;47.252;8.696;2023-02-12T14:48:56;24.30;;;12.40;;
19587;SDS011;9940;47.252;8.696;2023-02-12T14:51:46;24.77;;;13.52;;
19587;SDS011;9940;47.252;8.696;2023-02-12T14:54:17;28.42;;;13.80;;
19587;SDS011;9940;47.252;8.696;2023-02-12T14:56:51;25.92;;;13.70;;
19587;SDS011;9940;47.252;8.696;2023-02-12T14:59:20;26.05;;;14.15;;
19587;SDS011;9940;47.252;8.696;2023-02-12T15:01:49;25.42;;;14.10;;
19587;SDS011;9940;47.252;8.696;2023-02-12T15:04:19;24.27;;;13.63;;
19587;SDS011;9940;47.252;8.696;2023-02-12T15:06:58;24.95;;;13.27;;
19587;SDS011;9940;47.252;8.696;2023-02-12T15:10:18;25.30;;;13.70;;
19587;SDS011;9940;47.252;8.696;2023-02-12T15:12:38;23.50;;;13.07;;
19587;SDS011;9940;47.252;8.696;2023-02-12T15:23:39;24.13;;;12.88;;
19587;SDS011;9940;47.252;8.696;2023-02-12T15:26:10;23.30;;;12.15;;
19587;SDS011;9940;47.252;8.696;2023-02-12T15:28:41;26.08;;;13.05;;
19587;SDS011;9940;47.252;8.696;2023-02-12T15:31:13;23.85;;;13.70;;
19587;SDS011;9940;47.252;8.696;2023-02-12T15:33:45;20.85;;;11.98;;
19587;SDS011;9940;47.252;8.696;2023-02-12T15:36:16;22.02;;;12.07;;
19587;SDS011;9940;47.252;8.696;2023-02-12T15:38:46;22.42;;;11.98;;
19587;SDS011;9940;47.252;8.696;2023-02-12T15:44:17;24.05;;;10.88;;
19587;SDS011;9940;47.252;8.696;2023-02-12T15:46:52;20.92;;;11.57;;
19587;SDS011;9940;47.252;8.696;2023-02-12T15:49:40;26.00;;;11.50;;
19587;SDS011;9940;47.252;8.696;2023-02-12T15:52:20;20.85;;;11.27;;
19587;SDS011;9940;47.252;8.696;2023-02-12T15:54:58;24.77;;;11.45;;
19587;SDS011;9940;47.252;8.696;2023-02-12T15:57:24;22.02;;;11.65;;
19587;SDS011;9940;47.252;8.696;2023-02-12T15:59:55;26.13;;;13.25;;
19587;SDS011;9940;47.252;8.696;2023-02-12T16:02:31;31.90;;;17.27;;
19587;SDS011;9940;47.252;8.696;2023-02-12T16:05:02;23.60;;;12.30;;
19587;SDS011;9940;47.252;8.696;2023-02-12T16:07:34;21.60;;;11.13;;
19587;SDS011;9940;47.252;8.696;2023-02-12T16:10:03;21.70;;;11.27;;
19587;SDS011;9940;47.252;8.696;2023-02-12T16:12:30;21.80;;;11.57;;
19587;SDS011;9940;47.252;8.696;2023-02-12T16:14:58;19.27;;;11.82;;
19587;SDS011;9940;47.252;8.696;2023-02-12T16:19:56;19.95;;;11.90;;
19587;SDS011;9940;47.252;8.696;2023-02-12T16:22:32;19.77;;;10.80;;
19587;SDS011;9940;47.252;8.696;2023-02-12T16:25:01;21.40;;;11.20;;
19587;SDS011;9940;47.252;8.696;2023-02-12T16:27:28;18.98;;;11.43;;
19587;SDS011;9940;47.252;8.696;2023-02-12T16:29:56;26.02;;;12.88;;
19587;SDS011;9940;47.252;8.696;2023-02-12T16:42:34;26.10;;;12.60;;
19587;SDS011;9940;47.252;8.696;2023-02-12T16:45:36;23.60;;;11.73;;
19587;SDS011;9940;47.252;8.696;2023-02-12T16:50:28;24.33;;;11.38;;
19587;SDS011;9940;47.252;8.696;2023-02-12T16:52:58;21.65;;;10.80;;
19587;SDS011;9940;47.252;8.696;2023-02-12T16:55:25;23.02;;;11.70;;
19587;SDS011;9940;47.252;8.696;2023-02-12T16:57:53;22.27;;;11.27;;
19587;SDS011;9940;47.252;8.696;2023-02-12T17:00:19;20.52;;;11.13;;
19587;SDS011;9940;47.252;8.696;2023-02-12T17:02:46;23.50;;;10.65;;
19587;SDS011;9940;47.252;8.696;2023-02-12T17:05:13;21.55;;;11.20;;
19587;SDS011;9940;47.252;8.696;2023-02-12T17:07:44;27.15;;;11.85;;
19587;SDS011;9940;47.252;8.696;2023-02-12T17:10:13;25.55;;;11.85;;
19587;SDS011;9940;47.252;8.696;2023-02-12T17:12:50;25.75;;;12.13;;
19587;SDS011;9940;47.252;8.696;2023-02-12T17:15:21;23.33;;;11.52;;
19587;SDS011;9940;47.252;8.696;2023-02-12T17:17:47;26.60;;;12.52;;
19587;SDS011;9940;47.252;8.696;2023-02-12T17:20:13;27.25;;;11.95;;
19587;SDS011;9940;47.252;8.696;2023-02-12T17:22:42;26.13;;;11.70;;
19587;SDS011;9940;47.252;8.696;2023-02-12T17:25:09;27.63;;;11.32;;
19587;SDS011;9940;47.252;8.696;2023-02-12T17:27:39;21.77;;;10.50;;
19587;SDS011;9940;47.252;8.696;2023-02-12T17:30:05;25.33;;;11.75;;
19587;SDS011;9940;47.252;8.696;2023-02-12T17:32:31;26.52;;;11.65;;
19587;SDS011;9940;47.252;8.696;2023-02-12T17:34:57;26.65;;;11.73;;
19587;SDS011;9940;47.252;8.696;2023-02-12T17:37:26;24.60;;;11.05;;
19587;SDS011;9940;47.252;8.696;2023-02-12T17:39:52;26.38;;;11.27;;
19587;SDS011;9940;47.252;8.696;2023-02-12T17:42:20;26.13;;;11.15;;
19587;SDS011;9940;47.252;8.696;2023-02-12T17:44:46;23.13;;;10.93;;
19587;SDS011;9940;47.252;8.696;2023-02-12T17:47:14;28.83;;;13.45;;
19587;SDS011;9940;47.252;8.696;2023-02-12T17:49:40;26.95;;;12.82;;
19587;SDS011;9940;47.252;8.696;2023-02-12T17:52:06;28.80;;;12.60;;
19587;SDS011;9940;47.252;8.696;2023-02-12T17:54:33;24.83;;;12.02;;
19587;SDS011;9940;47.252;8.696;2023-02-12T17:56:59;26.48;;;11.68;;
19587;SDS011;9940;47.252;8.696;2023-02-12T17:59:25;23.55;;;10.68;;
19587;SDS011;9940;47.252;8.696;2023-02-12T18:01:51;23.45;;;10.95;;
19587;SDS011;9940;47.252;8.696;2023-02-12T18:04:17;27.02;;;10.88;;
19587;SDS011;9940;47.252;8.696;2023-02-12T18:06:45;24.48;;;11.57;;
19587;SDS011;9940;47.252;8.696;2023-02-12T18:09:14;34.13;;;13.10;;
19587;SDS011;9940;47.252;8.696;2023-02-12T18:11:40;79.93;;;36.97;;
19587;SDS011;9940;47.252;8.696;2023-02-12T18:14:06;39.88;;;19.50;;
19587;SDS011;9940;47.252;8.696;2023-02-12T18:16:34;32.75;;;13.55;;
19587;SDS011;9940;47.252;8.696;2023-02-12T18:19:03;26.25;;;12.18;;
19587;SDS011;9940;47.252;8.696;2023-02-12T18:21:29;26.58;;;11.48;;
19587;SDS011;9940;47.252;8.696;2023-02-12T18:23:57;28.20;;;12.15;;
19587;SDS011;9940;47.252;8.696;2023-02-12T18:26:23;26.63;;;12.85;;